ilmateenistus.ee keskkonnaagentuur.ee
EETN Tallinn
FTEO31 EETN 130500
TAF EETN 130515Z 1306/1406 07012KT 9999 SCT008 BKN020 TEMPO 1306/1316
    2000 SHSNRA BKN006 SCT012CB OVC015 TEMPO 1320/1406 2000 SHSN BKN008
    SCT012CB BKN020 PROB30 TEMPO 1403/1406 -FZDZ=

METAR EETN 130650Z 07013KT 9999 -SN OVC011 01/M01 Q1030 R08/550395 NOSIG=
Tallinn
EEKA Kärdla
FCEO32 EETN 130400
TAF EEKA 130400Z 1305/1311 06015KT 9999 BKN012 OVC020 TEMPO 1305/1311
    2000 SHSNRA BKN006 SCT015CB BKN020=

METAR EEKA 130550Z 05008KT 010V100 9999 FEW009 SCT023 02/00 Q1030=
Kärdla
EEKE Kuressaare
FCEO32 EETN 130600
TAF EEKE 130600Z 1307/1313 05010KT 9999 OVC015 TEMPO 1307/1313 3000
    SN BKN008 OVC015=

METAR EEKE 130550Z 04009KT 010V070 9999 -SN BKN013 OVC016 00/M01 Q1029 R17/490095=
Kuressaare
EEPU Pärnu
METAR EEPU 130650Z 04007KT 020V080 9999 OVC014 01/M01 Q1029=
Pärnu
EETU Tartu
METAR EETU 130650Z 05007KT 7000 OVC005 M01/M01 Q1028=
Tartu
EEEI Ämari
METAR EEEI 130650Z 04009KT 9999 -DZ BKN008 OVC020 01/M00 Q1030 R06/190095 NOSIG=
Ämari